sensor_id;sensor_type;location;lat;lon;timestamp;temperature;humidity
18613;DHT22;9436;52.152;21.032;2022-09-14T00:01:29;16.00;99.90
18613;DHT22;9436;52.152;21.032;2022-09-14T00:03:58;16.00;99.90
18613;DHT22;9436;52.152;21.032;2022-09-14T00:06:27;16.00;99.90
18613;DHT22;9436;52.152;21.032;2022-09-14T00:08:55;16.00;99.90
18613;DHT22;9436;52.152;21.032;2022-09-14T00:11:24;15.90;99.90
18613;DHT22;9436;52.152;21.032;2022-09-14T00:13:52;15.90;99.90
18613;DHT22;9436;52.152;21.032;2022-09-14T00:16:22;15.80;99.90
18613;DHT22;9436;52.152;21.032;2022-09-14T00:18:50;15.80;99.90
18613;DHT22;9436;52.152;21.032;2022-09-14T00:21:18;15.70;99.90
18613;DHT22;9436;52.152;21.032;2022-09-14T00:23:47;15.70;99.90
18613;DHT22;9436;52.152;21.032;2022-09-14T00:26:15;15.60;99.90
18613;DHT22;9436;52.152;21.032;2022-09-14T00:28:45;15.60;99.90
18613;DHT22;9436;52.152;21.032;2022-09-14T00:31:12;15.60;99.90
18613;DHT22;9436;52.152;21.032;2022-09-14T00:33:40;15.60;99.90
18613;DHT22;9436;52.152;21.032;2022-09-14T00:36:09;15.50;99.90
18613;DHT22;9436;52.152;21.032;2022-09-14T00:38:38;15.40;99.90
18613;DHT22;9436;52.152;21.032;2022-09-14T00:41:12;15.30;99.90
18613;DHT22;9436;52.152;21.032;2022-09-14T00:46:11;15.30;99.90
18613;DHT22;9436;52.152;21.032;2022-09-14T00:48:37;15.20;99.90
18613;DHT22;9436;52.152;21.032;2022-09-14T00:51:04;15.10;99.90
18613;DHT22;9436;52.152;21.032;2022-09-14T00:53:31;15.10;99.90
18613;DHT22;9436;52.152;21.032;2022-09-14T00:55:57;15.00;99.90
18613;DHT22;9436;52.152;21.032;2022-09-14T00:58:26;15.00;99.90
18613;DHT22;9436;52.152;21.032;2022-09-14T01:00:53;15.00;99.90
18613;DHT22;9436;52.152;21.032;2022-09-14T01:03:19;14.90;99.90
18613;DHT22;9436;52.152;21.032;2022-09-14T01:05:55;14.90;99.90
18613;DHT22;9436;52.152;21.032;2022-09-14T01:08:38;14.90;99.90
18613;DHT22;9436;52.152;21.032;2022-09-14T01:11:18;14.90;99.90
18613;DHT22;9436;52.152;21.032;2022-09-14T01:13:55;14.80;99.90
18613;DHT22;9436;52.152;21.032;2022-09-14T01:16:30;14.90;99.90
18613;DHT22;9436;52.152;21.032;2022-09-14T01:19:00;14.90;99.90
18613;DHT22;9436;52.152;21.032;2022-09-14T01:21:31;14.90;99.90
18613;DHT22;9436;52.152;21.032;2022-09-14T01:24:05;14.80;99.90
18613;DHT22;9436;52.152;21.032;2022-09-14T01:26:49;14.90;99.90
18613;DHT22;9436;52.152;21.032;2022-09-14T01:29:26;14.90;99.90
18613;DHT22;9436;52.152;21.032;2022-09-14T01:31:56;14.90;99.90
18613;DHT22;9436;52.152;21.032;2022-09-14T01:34:29;14.80;99.90
18613;DHT22;9436;52.152;21.032;2022-09-14T01:36:59;14.90;99.90
18613;DHT22;9436;52.152;21.032;2022-09-14T01:39:29;14.80;99.90
18613;DHT22;9436;52.152;21.032;2022-09-14T01:41:57;14.90;99.90
18613;DHT22;9436;52.152;21.032;2022-09-14T01:44:31;14.90;99.90
18613;DHT22;9436;52.152;21.032;2022-09-14T01:47:03;14.90;99.90
18613;DHT22;9436;52.152;21.032;2022-09-14T01:49:37;14.90;99.90
18613;DHT22;9436;52.152;21.032;2022-09-14T01:52:07;14.90;99.90
18613;DHT22;9436;52.152;21.032;2022-09-14T01:54:39;14.90;99.90
18613;DHT22;9436;52.152;21.032;2022-09-14T01:57:09;14.90;99.90
18613;DHT22;9436;52.152;21.032;2022-09-14T01:59:42;14.90;99.90
18613;DHT22;9436;52.152;21.032;2022-09-14T02:02:11;14.90;99.90
18613;DHT22;9436;52.152;21.032;2022-09-14T02:04:43;15.00;99.90
18613;DHT22;9436;52.152;21.032;2022-09-14T02:07:12;14.90;99.90
18613;DHT22;9436;52.152;21.032;2022-09-14T02:09:38;14.90;99.90
18613;DHT22;9436;52.152;21.032;2022-09-14T02:12:06;14.80;99.90
18613;DHT22;9436;52.152;21.032;2022-09-14T02:14:34;14.90;99.90
18613;DHT22;9436;52.152;21.032;2022-09-14T02:17:02;14.90;99.90
18613;DHT22;9436;52.152;21.032;2022-09-14T02:19:32;14.90;99.90
18613;DHT22;9436;52.152;21.032;2022-09-14T02:22:01;14.90;99.90
18613;DHT22;9436;52.152;21.032;2022-09-14T02:24:28;14.90;99.90
18613;DHT22;9436;52.152;21.032;2022-09-14T02:26:55;14.90;99.90
18613;DHT22;9436;52.152;21.032;2022-09-14T02:29:23;14.90;99.90
18613;DHT22;9436;52.152;21.032;2022-09-14T02:31:57;14.90;99.90
18613;DHT22;9436;52.152;21.032;2022-09-14T02:34:35;14.90;99.90
18613;DHT22;9436;52.152;21.032;2022-09-14T02:37:07;14.90;99.90
18613;DHT22;9436;52.152;21.032;2022-09-14T02:39:43;14.90;99.90
18613;DHT22;9436;52.152;21.032;2022-09-14T02:42:16;14.80;99.90
18613;DHT22;9436;52.152;21.032;2022-09-14T02:44:57;14.90;99.90
18613;DHT22;9436;52.152;21.032;2022-09-14T02:47:32;14.90;99.90
18613;DHT22;9436;52.152;21.032;2022-09-14T02:50:07;14.90;99.90
18613;DHT22;9436;52.152;21.032;2022-09-14T02:52:42;15.00;99.90
18613;DHT22;9436;52.152;21.032;2022-09-14T02:55:14;15.00;99.90
18613;DHT22;9436;52.152;21.032;2022-09-14T03:00:14;15.00;99.90
18613;DHT22;9436;52.152;21.032;2022-09-14T03:02:41;15.00;99.90
18613;DHT22;9436;52.152;21.032;2022-09-14T03:05:09;15.00;99.90
18613;DHT22;9436;52.152;21.032;2022-09-14T03:07:36;15.00;99.90
18613;DHT22;9436;52.152;21.032;2022-09-14T03:10:02;15.00;99.90
18613;DHT22;9436;52.152;21.032;2022-09-14T03:12:29;15.10;99.90
18613;DHT22;9436;52.152;21.032;2022-09-14T03:14:55;15.10;99.90
18613;DHT22;9436;52.152;21.032;2022-09-14T03:17:22;15.10;99.90
18613;DHT22;9436;52.152;21.032;2022-09-14T03:19:49;15.20;99.90
18613;DHT22;9436;52.152;21.032;2022-09-14T03:22:16;15.20;99.90
18613;DHT22;9436;52.152;21.032;2022-09-14T03:24:43;15.20;99.90
18613;DHT22;9436;52.152;21.032;2022-09-14T03:27:10;15.20;99.90
18613;DHT22;9436;52.152;21.032;2022-09-14T03:29:36;15.30;99.90
18613;DHT22;9436;52.152;21.032;2022-09-14T03:32:03;15.30;99.90
18613;DHT22;9436;52.152;21.032;2022-09-14T03:34:29;15.30;99.90
18613;DHT22;9436;52.152;21.032;2022-09-14T03:36:56;15.30;99.90
18613;DHT22;9436;52.152;21.032;2022-09-14T03:39:24;15.30;99.90
18613;DHT22;9436;52.152;21.032;2022-09-14T03:41:50;15.30;99.90
18613;DHT22;9436;52.152;21.032;2022-09-14T03:44:17;15.30;99.90
18613;DHT22;9436;52.152;21.032;2022-09-14T03:46:43;15.20;99.90
18613;DHT22;9436;52.152;21.032;2022-09-14T03:49:10;15.30;99.90
18613;DHT22;9436;52.152;21.032;2022-09-14T03:51:37;15.20;99.90
18613;DHT22;9436;52.152;21.032;2022-09-14T03:54:03;15.20;99.90
18613;DHT22;9436;52.152;21.032;2022-09-14T03:56:31;15.10;99.90
18613;DHT22;9436;52.152;21.032;2022-09-14T03:58:57;15.10;99.90
18613;DHT22;9436;52.152;21.032;2022-09-14T04:01:24;15.00;99.90
18613;DHT22;9436;52.152;21.032;2022-09-14T04:03:51;14.90;99.90
18613;DHT22;9436;52.152;21.032;2022-09-14T04:06:18;15.00;99.90
18613;DHT22;9436;52.152;21.032;2022-09-14T04:08:45;15.00;99.90
18613;DHT22;9436;52.152;21.032;2022-09-14T04:11:15;14.90;99.90
18613;DHT22;9436;52.152;21.032;2022-09-14T04:13:43;15.00;99.90
18613;DHT22;9436;52.152;21.032;2022-09-14T04:16:10;14.90;99.90
18613;DHT22;9436;52.152;21.032;2022-09-14T04:18:37;14.90;99.90
18613;DHT22;9436;52.152;21.032;2022-09-14T04:21:05;14.90;99.90
18613;DHT22;9436;52.152;21.032;2022-09-14T04:23:32;14.80;99.90
18613;DHT22;9436;52.152;21.032;2022-09-14T04:25:59;14.80;99.90
18613;DHT22;9436;52.152;21.032;2022-09-14T04:28:26;14.80;99.90
18613;DHT22;9436;52.152;21.032;2022-09-14T04:30:56;14.80;99.90
18613;DHT22;9436;52.152;21.032;2022-09-14T04:33:23;14.90;99.90
18613;DHT22;9436;52.152;21.032;2022-09-14T04:35:58;14.90;99.90
18613;DHT22;9436;52.152;21.032;2022-09-14T04:38:26;15.00;99.90
18613;DHT22;9436;52.152;21.032;2022-09-14T04:40:53;15.00;99.90
18613;DHT22;9436;52.152;21.032;2022-09-14T04:43:19;15.00;99.90
18613;DHT22;9436;52.152;21.032;2022-09-14T04:45:46;15.10;99.90
18613;DHT22;9436;52.152;21.032;2022-09-14T04:48:14;15.10;99.90
18613;DHT22;9436;52.152;21.032;2022-09-14T04:50:41;15.10;99.90
18613;DHT22;9436;52.152;21.032;2022-09-14T04:53:08;15.10;99.90
18613;DHT22;9436;52.152;21.032;2022-09-14T04:55:34;15.30;99.90
18613;DHT22;9436;52.152;21.032;2022-09-14T04:58:01;15.30;99.90
18613;DHT22;9436;52.152;21.032;2022-09-14T05:00:29;15.30;99.90
18613;DHT22;9436;52.152;21.032;2022-09-14T05:02:56;15.20;99.90
18613;DHT22;9436;52.152;21.032;2022-09-14T05:05:24;15.30;99.90
18613;DHT22;9436;52.152;21.032;2022-09-14T05:07:50;15.30;99.90
18613;DHT22;9436;52.152;21.032;2022-09-14T05:10:17;15.30;99.90
18613;DHT22;9436;52.152;21.032;2022-09-14T05:12:44;15.30;99.90
18613;DHT22;9436;52.152;21.032;2022-09-14T05:15:11;15.30;99.90
18613;DHT22;9436;52.152;21.032;2022-09-14T05:17:37;15.30;99.90
18613;DHT22;9436;52.152;21.032;2022-09-14T05:20:04;15.40;99.90
18613;DHT22;9436;52.152;21.032;2022-09-14T05:22:32;15.40;99.90
18613;DHT22;9436;52.152;21.032;2022-09-14T05:24:59;15.40;99.90
18613;DHT22;9436;52.152;21.032;2022-09-14T05:27:25;15.40;99.90
18613;DHT22;9436;52.152;21.032;2022-09-14T05:29:52;15.40;99.90
18613;DHT22;9436;52.152;21.032;2022-09-14T05:32:18;15.50;99.90
18613;DHT22;9436;52.152;21.032;2022-09-14T05:34:45;15.70;99.90
18613;DHT22;9436;52.152;21.032;2022-09-14T05:37:12;15.80;99.90
18613;DHT22;9436;52.152;21.032;2022-09-14T05:39:42;15.90;99.90
18613;DHT22;9436;52.152;21.032;2022-09-14T05:42:09;16.00;99.90
18613;DHT22;9436;52.152;21.032;2022-09-14T05:44:37;16.00;99.90
18613;DHT22;9436;52.152;21.032;2022-09-14T05:47:04;16.20;99.90
18613;DHT22;9436;52.152;21.032;2022-09-14T05:49:30;16.30;99.90
18613;DHT22;9436;52.152;21.032;2022-09-14T05:51:57;16.40;99.90
18613;DHT22;9436;52.152;21.032;2022-09-14T05:54:24;16.40;99.90
18613;DHT22;9436;52.152;21.032;2022-09-14T05:56:52;16.40;99.90
18613;DHT22;9436;52.152;21.032;2022-09-14T05:59:20;16.50;99.90
18613;DHT22;9436;52.152;21.032;2022-09-14T06:01:47;16.50;99.90
18613;DHT22;9436;52.152;21.032;2022-09-14T06:04:14;16.50;99.90
18613;DHT22;9436;52.152;21.032;2022-09-14T06:06:42;16.50;99.90
18613;DHT22;9436;52.152;21.032;2022-09-14T06:09:08;16.50;99.90
18613;DHT22;9436;52.152;21.032;2022-09-14T06:11:35;16.60;99.90
18613;DHT22;9436;52.152;21.032;2022-09-14T06:14:03;16.60;99.90
18613;DHT22;9436;52.152;21.032;2022-09-14T06:16:30;16.60;99.90
18613;DHT22;9436;52.152;21.032;2022-09-14T06:18:57;16.60;99.90
18613;DHT22;9436;52.152;21.032;2022-09-14T06:21:27;16.60;99.90
18613;DHT22;9436;52.152;21.032;2022-09-14T06:23:54;16.50;99.90
18613;DHT22;9436;52.152;21.032;2022-09-14T06:26:21;16.50;99.90
18613;DHT22;9436;52.152;21.032;2022-09-14T06:28:49;16.50;99.90
18613;DHT22;9436;52.152;21.032;2022-09-14T06:31:17;16.50;99.90
18613;DHT22;9436;52.152;21.032;2022-09-14T06:33:47;16.50;99.90
18613;DHT22;9436;52.152;21.032;2022-09-14T06:36:16;16.60;99.90
18613;DHT22;9436;52.152;21.032;2022-09-14T06:38:45;16.50;99.90
18613;DHT22;9436;52.152;21.032;2022-09-14T06:41:15;16.60;99.90
18613;DHT22;9436;52.152;21.032;2022-09-14T06:43:45;16.60;99.90
18613;DHT22;9436;52.152;21.032;2022-09-14T06:46:13;16.60;99.90
18613;DHT22;9436;52.152;21.032;2022-09-14T06:48:43;16.70;99.90
18613;DHT22;9436;52.152;21.032;2022-09-14T06:51:12;16.80;99.90
18613;DHT22;9436;52.152;21.032;2022-09-14T06:53:40;16.80;99.90
18613;DHT22;9436;52.152;21.032;2022-09-14T06:56:08;16.80;99.90
18613;DHT22;9436;52.152;21.032;2022-09-14T06:58:37;16.70;99.90
18613;DHT22;9436;52.152;21.032;2022-09-14T07:01:06;16.50;99.90
18613;DHT22;9436;52.152;21.032;2022-09-14T07:03:35;16.40;99.90
18613;DHT22;9436;52.152;21.032;2022-09-14T07:06:05;16.30;99.90
18613;DHT22;9436;52.152;21.032;2022-09-14T07:08:34;16.30;99.90
18613;DHT22;9436;52.152;21.032;2022-09-14T07:11:02;16.30;99.90
18613;DHT22;9436;52.152;21.032;2022-09-14T07:13:29;16.30;99.90
18613;DHT22;9436;52.152;21.032;2022-09-14T07:15:56;16.20;99.90
18613;DHT22;9436;52.152;21.032;2022-09-14T07:18:24;16.30;99.90
18613;DHT22;9436;52.152;21.032;2022-09-14T07:21:00;16.30;99.90
18613;DHT22;9436;52.152;21.032;2022-09-14T07:23:29;16.30;99.90
18613;DHT22;9436;52.152;21.032;2022-09-14T07:25:59;16.40;99.90
18613;DHT22;9436;52.152;21.032;2022-09-14T07:28:27;16.40;99.90
18613;DHT22;9436;52.152;21.032;2022-09-14T07:30:54;16.60;99.90
18613;DHT22;9436;52.152;21.032;2022-09-14T07:33:22;16.60;99.90
18613;DHT22;9436;52.152;21.032;2022-09-14T07:35:50;16.70;99.90
18613;DHT22;9436;52.152;21.032;2022-09-14T07:38:19;16.70;99.90
18613;DHT22;9436;52.152;21.032;2022-09-14T07:40:48;16.80;99.90
18613;DHT22;9436;52.152;21.032;2022-09-14T07:43:15;16.90;99.90
18613;DHT22;9436;52.152;21.032;2022-09-14T07:45:43;17.10;99.90
18613;DHT22;9436;52.152;21.032;2022-09-14T07:48:09;17.40;99.90
18613;DHT22;9436;52.152;21.032;2022-09-14T07:50:36;17.40;99.90
18613;DHT22;9436;52.152;21.032;2022-09-14T07:53:02;17.40;99.90
18613;DHT22;9436;52.152;21.032;2022-09-14T07:55:29;17.40;99.90
18613;DHT22;9436;52.152;21.032;2022-09-14T07:57:58;17.50;99.90
18613;DHT22;9436;52.152;21.032;2022-09-14T08:00:24;17.50;99.90
18613;DHT22;9436;52.152;21.032;2022-09-14T08:02:52;17.50;99.90
18613;DHT22;9436;52.152;21.032;2022-09-14T08:05:19;17.40;99.90
18613;DHT22;9436;52.152;21.032;2022-09-14T08:07:46;17.40;99.90
18613;DHT22;9436;52.152;21.032;2022-09-14T08:10:13;17.40;99.90
18613;DHT22;9436;52.152;21.032;2022-09-14T08:16:04;17.50;99.90
18613;DHT22;9436;52.152;21.032;2022-09-14T08:18:33;17.60;99.90
18613;DHT22;9436;52.152;21.032;2022-09-14T08:21:03;17.50;99.90
18613;DHT22;9436;52.152;21.032;2022-09-14T08:23:29;17.50;99.90
18613;DHT22;9436;52.152;21.032;2022-09-14T08:26:01;17.50;99.90
18613;DHT22;9436;52.152;21.032;2022-09-14T08:28:27;17.40;99.90
18613;DHT22;9436;52.152;21.032;2022-09-14T08:30:55;17.50;99.90
18613;DHT22;9436;52.152;21.032;2022-09-14T08:33:23;17.60;99.90
18613;DHT22;9436;52.152;21.032;2022-09-14T08:35:49;17.70;99.90
18613;DHT22;9436;52.152;21.032;2022-09-14T08:38:16;17.70;99.90
18613;DHT22;9436;52.152;21.032;2022-09-14T08:40:44;17.60;99.90
18613;DHT22;9436;52.152;21.032;2022-09-14T08:43:12;17.70;99.90
18613;DHT22;9436;52.152;21.032;2022-09-14T08:45:40;17.60;99.90
18613;DHT22;9436;52.152;21.032;2022-09-14T08:48:13;17.70;99.90
18613;DHT22;9436;52.152;21.032;2022-09-14T08:50:43;17.80;99.90
18613;DHT22;9436;52.152;21.032;2022-09-14T08:53:10;17.90;99.90
18613;DHT22;9436;52.152;21.032;2022-09-14T08:55:41;17.90;99.90
18613;DHT22;9436;52.152;21.032;2022-09-14T08:58:28;17.90;99.90
18613;DHT22;9436;52.152;21.032;2022-09-14T09:01:01;18.00;99.90
18613;DHT22;9436;52.152;21.032;2022-09-14T09:03:47;17.90;99.90
18613;DHT22;9436;52.152;21.032;2022-09-14T09:06:27;17.80;99.90
18613;DHT22;9436;52.152;21.032;2022-09-14T09:09:01;17.70;99.90
18613;DHT22;9436;52.152;21.032;2022-09-14T09:11:36;17.80;99.90
18613;DHT22;9436;52.152;21.032;2022-09-14T09:14:15;18.00;99.90
18613;DHT22;9436;52.152;21.032;2022-09-14T09:16:43;18.10;99.90
18613;DHT22;9436;52.152;21.032;2022-09-14T09:19:15;18.30;99.90
18613;DHT22;9436;52.152;21.032;2022-09-14T09:21:46;18.50;99.90
18613;DHT22;9436;52.152;21.032;2022-09-14T09:24:21;18.70;99.90
18613;DHT22;9436;52.152;21.032;2022-09-14T09:26:49;18.60;99.90
18613;DHT22;9436;52.152;21.032;2022-09-14T09:29:16;18.80;99.90
18613;DHT22;9436;52.152;21.032;2022-09-14T09:31:45;18.70;99.90
18613;DHT22;9436;52.152;21.032;2022-09-14T09:34:15;18.90;99.90
18613;DHT22;9436;52.152;21.032;2022-09-14T09:36:46;19.00;99.90
18613;DHT22;9436;52.152;21.032;2022-09-14T09:39:14;19.00;99.90
18613;DHT22;9436;52.152;21.032;2022-09-14T09:41:43;19.00;99.90
18613;DHT22;9436;52.152;21.032;2022-09-14T09:44:11;18.90;99.90
18613;DHT22;9436;52.152;21.032;2022-09-14T09:46:43;18.90;99.90
18613;DHT22;9436;52.152;21.032;2022-09-14T09:49:17;18.80;99.90
18613;DHT22;9436;52.152;21.032;2022-09-14T09:51:46;18.80;99.90
18613;DHT22;9436;52.152;21.032;2022-09-14T09:54:20;18.80;99.90
18613;DHT22;9436;52.152;21.032;2022-09-14T09:56:51;18.80;99.90
18613;DHT22;9436;52.152;21.032;2022-09-14T09:59:30;18.80;99.90
18613;DHT22;9436;52.152;21.032;2022-09-14T10:02:19;18.70;99.90
18613;DHT22;9436;52.152;21.032;2022-09-14T10:04:54;18.60;99.90
18613;DHT22;9436;52.152;21.032;2022-09-14T10:07:22;18.60;99.90
18613;DHT22;9436;52.152;21.032;2022-09-14T10:09:56;18.70;99.90
18613;DHT22;9436;52.152;21.032;2022-09-14T10:12:24;18.80;99.90
18613;DHT22;9436;52.152;21.032;2022-09-14T10:15:04;18.90;99.90
18613;DHT22;9436;52.152;21.032;2022-09-14T10:17:32;18.90;99.90
18613;DHT22;9436;52.152;21.032;2022-09-14T10:19:59;18.90;99.90
18613;DHT22;9436;52.152;21.032;2022-09-14T10:22:28;18.90;99.90
18613;DHT22;9436;52.152;21.032;2022-09-14T10:24:57;18.90;99.90
18613;DHT22;9436;52.152;21.032;2022-09-14T10:27:31;19.00;99.90
18613;DHT22;9436;52.152;21.032;2022-09-14T10:30:00;19.20;99.90
18613;DHT22;9436;52.152;21.032;2022-09-14T10:32:29;19.40;99.90
18613;DHT22;9436;52.152;21.032;2022-09-14T10:34:56;19.50;99.90
18613;DHT22;9436;52.152;21.032;2022-09-14T10:37:31;19.60;99.90
18613;DHT22;9436;52.152;21.032;2022-09-14T10:40:10;19.80;99.90
18613;DHT22;9436;52.152;21.032;2022-09-14T10:42:47;19.90;99.90
18613;DHT22;9436;52.152;21.032;2022-09-14T10:45:20;19.90;99.90
18613;DHT22;9436;52.152;21.032;2022-09-14T10:48:05;20.00;99.90
18613;DHT22;9436;52.152;21.032;2022-09-14T10:50:44;20.00;99.90
18613;DHT22;9436;52.152;21.032;2022-09-14T10:53:27;19.90;99.90
18613;DHT22;9436;52.152;21.032;2022-09-14T10:56:01;20.00;99.90
18613;DHT22;9436;52.152;21.032;2022-09-14T10:58:36;20.10;99.90
18613;DHT22;9436;52.152;21.032;2022-09-14T11:01:19;20.10;99.90
18613;DHT22;9436;52.152;21.032;2022-09-14T11:04:00;20.30;99.90
18613;DHT22;9436;52.152;21.032;2022-09-14T11:06:40;20.50;99.90
18613;DHT22;9436;52.152;21.032;2022-09-14T11:09:16;20.70;99.90
18613;DHT22;9436;52.152;21.032;2022-09-14T11:11:55;20.80;99.90
18613;DHT22;9436;52.152;21.032;2022-09-14T11:14:33;20.60;99.90
18613;DHT22;9436;52.152;21.032;2022-09-14T11:17:13;20.50;99.90
18613;DHT22;9436;52.152;21.032;2022-09-14T11:19:48;20.70;99.90
18613;DHT22;9436;52.152;21.032;2022-09-14T11:22:24;20.80;99.90
18613;DHT22;9436;52.152;21.032;2022-09-14T11:24:56;21.00;99.90
18613;DHT22;9436;52.152;21.032;2022-09-14T11:27:27;21.10;99.90
18613;DHT22;9436;52.152;21.032;2022-09-14T11:29:58;21.10;99.90
18613;DHT22;9436;52.152;21.032;2022-09-14T11:32:30;20.90;99.90
18613;DHT22;9436;52.152;21.032;2022-09-14T11:35:00;20.80;99.90
18613;DHT22;9436;52.152;21.032;2022-09-14T11:37:34;20.70;99.90
18613;DHT22;9436;52.152;21.032;2022-09-14T11:40:12;20.50;99.90
18613;DHT22;9436;52.152;21.032;2022-09-14T11:42:45;20.40;99.90
18613;DHT22;9436;52.152;21.032;2022-09-14T11:45:18;20.30;99.90
18613;DHT22;9436;52.152;21.032;2022-09-14T11:47:53;20.20;99.90
18613;DHT22;9436;52.152;21.032;2022-09-14T11:50:24;20.20;99.90
18613;DHT22;9436;52.152;21.032;2022-09-14T11:53:02;20.30;99.90
18613;DHT22;9436;52.152;21.032;2022-09-14T11:55:30;20.40;99.90
18613;DHT22;9436;52.152;21.032;2022-09-14T11:57:58;20.40;99.90
18613;DHT22;9436;52.152;21.032;2022-09-14T12:00:42;20.50;99.90
18613;DHT22;9436;52.152;21.032;2022-09-14T12:03:13;20.60;99.90
18613;DHT22;9436;52.152;21.032;2022-09-14T12:05:41;20.80;99.90
18613;DHT22;9436;52.152;21.032;2022-09-14T12:10:59;20.90;99.90
18613;DHT22;9436;52.152;21.032;2022-09-14T12:13:26;20.90;99.90
18613;DHT22;9436;52.152;21.032;2022-09-14T12:16:00;20.90;99.90
18613;DHT22;9436;52.152;21.032;2022-09-14T12:18:28;21.00;99.90
18613;DHT22;9436;52.152;21.032;2022-09-14T12:20:59;21.00;99.90
18613;DHT22;9436;52.152;21.032;2022-09-14T12:23:30;21.00;99.90
18613;DHT22;9436;52.152;21.032;2022-09-14T12:26:08;20.90;99.90
18613;DHT22;9436;52.152;21.032;2022-09-14T12:28:41;21.00;99.90
18613;DHT22;9436;52.152;21.032;2022-09-14T12:31:30;21.10;99.90
18613;DHT22;9436;52.152;21.032;2022-09-14T12:34:03;21.20;99.90
18613;DHT22;9436;52.152;21.032;2022-09-14T12:39:18;20.90;99.90
18613;DHT22;9436;52.152;21.032;2022-09-14T12:46:51;21.10;99.90
18613;DHT22;9436;52.152;21.032;2022-09-14T12:49:23;21.20;99.90
18613;DHT22;9436;52.152;21.032;2022-09-14T12:51:51;21.30;99.90
18613;DHT22;9436;52.152;21.032;2022-09-14T12:54:23;21.50;99.90
18613;DHT22;9436;52.152;21.032;2022-09-14T12:57:00;21.40;99.90
18613;DHT22;9436;52.152;21.032;2022-09-14T12:59:34;21.40;99.90
18613;DHT22;9436;52.152;21.032;2022-09-14T13:02:18;21.30;99.90
18613;DHT22;9436;52.152;21.032;2022-09-14T13:04:52;21.30;99.90
18613;DHT22;9436;52.152;21.032;2022-09-14T13:07:21;21.20;99.90
18613;DHT22;9436;52.152;21.032;2022-09-14T13:09:50;21.30;99.90
18613;DHT22;9436;52.152;21.032;2022-09-14T13:12:25;21.30;99.90
18613;DHT22;9436;52.152;21.032;2022-09-14T13:14:55;21.30;99.90
18613;DHT22;9436;52.152;21.032;2022-09-14T13:17:24;21.40;99.90
18613;DHT22;9436;52.152;21.032;2022-09-14T13:19:53;21.50;99.90
18613;DHT22;9436;52.152;21.032;2022-09-14T13:22:23;21.40;99.90
18613;DHT22;9436;52.152;21.032;2022-09-14T13:24:51;21.10;99.90
18613;DHT22;9436;52.152;21.032;2022-09-14T13:27:21;20.80;99.90
18613;DHT22;9436;52.152;21.032;2022-09-14T13:29:57;20.80;99.90
18613;DHT22;9436;52.152;21.032;2022-09-14T13:32:26;20.80;99.90
18613;DHT22;9436;52.152;21.032;2022-09-14T13:34:53;21.00;99.90
18613;DHT22;9436;52.152;21.032;2022-09-14T13:37:20;21.10;99.90
18613;DHT22;9436;52.152;21.032;2022-09-14T13:39:50;21.20;99.90
18613;DHT22;9436;52.152;21.032;2022-09-14T13:42:17;21.20;99.90
18613;DHT22;9436;52.152;21.032;2022-09-14T13:44:45;21.30;99.90
18613;DHT22;9436;52.152;21.032;2022-09-14T13:47:16;21.30;99.90
18613;DHT22;9436;52.152;21.032;2022-09-14T13:49:45;21.40;99.90
18613;DHT22;9436;52.152;21.032;2022-09-14T13:52:17;21.40;99.90
18613;DHT22;9436;52.152;21.032;2022-09-14T13:54:44;21.40;99.90
18613;DHT22;9436;52.152;21.032;2022-09-14T13:57:14;21.40;99.90
18613;DHT22;9436;52.152;21.032;2022-09-14T14:02:14;21.20;99.90
18613;DHT22;9436;52.152;21.032;2022-09-14T14:04:48;21.20;99.90
18613;DHT22;9436;52.152;21.032;2022-09-14T14:07:17;21.00;99.90
18613;DHT22;9436;52.152;21.032;2022-09-14T14:09:47;20.90;99.90
18613;DHT22;9436;52.152;21.032;2022-09-14T14:12:20;20.90;99.90
18613;DHT22;9436;52.152;21.032;2022-09-14T14:14:53;20.90;99.90
18613;DHT22;9436;52.152;21.032;2022-09-14T14:17:24;20.90;99.90
18613;DHT22;9436;52.152;21.032;2022-09-14T14:19:56;20.90;99.90
18613;DHT22;9436;52.152;21.032;2022-09-14T14:22:26;20.90;99.90
18613;DHT22;9436;52.152;21.032;2022-09-14T14:24:54;20.80;99.90
18613;DHT22;9436;52.152;21.032;2022-09-14T14:27:27;20.70;99.90
18613;DHT22;9436;52.152;21.032;2022-09-14T14:29:56;20.70;99.90
18613;DHT22;9436;52.152;21.032;2022-09-14T14:32:23;20.60;99.90
18613;DHT22;9436;52.152;21.032;2022-09-14T14:34:50;20.70;99.90
18613;DHT22;9436;52.152;21.032;2022-09-14T14:37:18;20.70;99.90
18613;DHT22;9436;52.152;21.032;2022-09-14T14:39:45;20.70;99.90
18613;DHT22;9436;52.152;21.032;2022-09-14T14:42:13;20.80;99.90
18613;DHT22;9436;52.152;21.032;2022-09-14T14:44:41;20.80;99.90
18613;DHT22;9436;52.152;21.032;2022-09-14T14:47:09;20.90;99.90
18613;DHT22;9436;52.152;21.032;2022-09-14T14:49:37;21.00;99.90
18613;DHT22;9436;52.152;21.032;2022-09-14T14:52:03;20.90;99.90
18613;DHT22;9436;52.152;21.032;2022-09-14T14:54:32;20.90;99.90
18613;DHT22;9436;52.152;21.032;2022-09-14T14:56:59;20.90;99.90
18613;DHT22;9436;52.152;21.032;2022-09-14T14:59:28;20.90;99.90
18613;DHT22;9436;52.152;21.032;2022-09-14T15:01:56;20.70;99.90
18613;DHT22;9436;52.152;21.032;2022-09-14T15:04:24;20.50;99.90
18613;DHT22;9436;52.152;21.032;2022-09-14T15:06:51;20.40;99.90
18613;DHT22;9436;52.152;21.032;2022-09-14T15:09:20;20.20;99.90
18613;DHT22;9436;52.152;21.032;2022-09-14T15:11:51;20.10;99.90
18613;DHT22;9436;52.152;21.032;2022-09-14T15:14:20;20.10;99.90
18613;DHT22;9436;52.152;21.032;2022-09-14T15:16:47;20.10;99.90
18613;DHT22;9436;52.152;21.032;2022-09-14T15:19:14;20.10;99.90
18613;DHT22;9436;52.152;21.032;2022-09-14T15:21:41;20.00;99.90
18613;DHT22;9436;52.152;21.032;2022-09-14T15:24:09;20.00;99.90
18613;DHT22;9436;52.152;21.032;2022-09-14T15:26:36;19.90;99.90
18613;DHT22;9436;52.152;21.032;2022-09-14T15:29:04;19.80;99.90
18613;DHT22;9436;52.152;21.032;2022-09-14T15:31:31;19.80;99.90
18613;DHT22;9436;52.152;21.032;2022-09-14T15:33:59;19.70;99.90
18613;DHT22;9436;52.152;21.032;2022-09-14T15:38:59;19.80;99.90
18613;DHT22;9436;52.152;21.032;2022-09-14T15:41:25;19.70;99.90
18613;DHT22;9436;52.152;21.032;2022-09-14T15:43:52;19.60;99.90
18613;DHT22;9436;52.152;21.032;2022-09-14T15:46:20;19.60;99.90
18613;DHT22;9436;52.152;21.032;2022-09-14T15:48:46;19.50;99.90
18613;DHT22;9436;52.152;21.032;2022-09-14T15:51:13;19.40;99.90
18613;DHT22;9436;52.152;21.032;2022-09-14T15:53:41;19.30;99.90
18613;DHT22;9436;52.152;21.032;2022-09-14T15:56:11;19.30;99.90
18613;DHT22;9436;52.152;21.032;2022-09-14T15:58:38;19.20;99.90
18613;DHT22;9436;52.152;21.032;2022-09-14T16:01:06;19.10;99.90
18613;DHT22;9436;52.152;21.032;2022-09-14T16:03:34;19.10;99.90
18613;DHT22;9436;52.152;21.032;2022-09-14T16:06:02;19.10;99.90
18613;DHT22;9436;52.152;21.032;2022-09-14T16:08:29;19.10;99.90
18613;DHT22;9436;52.152;21.032;2022-09-14T16:10:57;19.10;99.90